createdAt,value
2018-09-08T00:00:30.233Z,13.50
2018-09-08T00:03:01.308Z,13.33
2018-09-08T00:05:31.731Z,13.06
2018-09-08T00:08:01.078Z,13.16
2018-09-08T00:10:30.417Z,13.36
2018-09-08T00:12:59.996Z,13.24
2018-09-08T00:15:34.492Z,13.34
2018-09-08T00:18:09.140Z,13.35
2018-09-08T00:20:43.764Z,13.33
2018-09-08T00:23:18.432Z,13.33
2018-09-08T00:25:53.042Z,13.16
2018-09-08T00:28:27.817Z,13.10
2018-09-08T00:30:57.355Z,12.98
2018-09-08T00:33:26.715Z,12.94
2018-09-08T00:35:56.341Z,12.92
2018-09-08T00:38:25.810Z,12.97
2018-09-08T00:40:55.074Z,12.78
2018-09-08T00:43:24.479Z,12.68
2018-09-08T00:45:53.787Z,13.03
2018-09-08T00:48:23.234Z,12.96
2018-09-08T00:50:52.620Z,13.06
2018-09-08T00:53:22.333Z,13.07
2018-09-08T00:55:52.110Z,13.19
2018-09-08T00:58:21.460Z,13.25
2018-09-08T01:00:51.486Z,13.38
2018-09-08T01:03:20.892Z,13.22
2018-09-08T01:05:50.475Z,13.45
2018-09-08T01:08:19.886Z,13.39
2018-09-08T01:10:49.375Z,13.50
2018-09-08T01:13:19.294Z,13.39
2018-09-08T01:15:48.953Z,13.41
2018-09-08T01:18:18.382Z,13.49
2018-09-08T01:20:47.847Z,13.63
2018-09-08T01:23:17.385Z,13.77
2018-09-08T01:25:46.754Z,14.03
2018-09-08T01:28:16.419Z,14.16
2018-09-08T01:30:46.141Z,14.12
2018-09-08T01:33:15.980Z,14.16
2018-09-08T01:35:46.208Z,14.26
2018-09-08T01:38:15.683Z,13.96
2018-09-08T01:40:44.988Z,14.17
2018-09-08T01:43:14.469Z,14.38
2018-09-08T01:45:43.848Z,14.26
2018-09-08T01:48:13.189Z,14.16
2018-09-08T01:50:42.554Z,14.07
2018-09-08T01:53:12.051Z,13.89
2018-09-08T01:55:41.702Z,13.81
2018-09-08T01:58:11.540Z,13.98
2018-09-08T02:00:40.929Z,14.10
2018-09-08T02:03:10.513Z,14.23
2018-09-08T02:05:39.928Z,13.99
2018-09-08T02:08:09.524Z,13.96
2018-09-08T02:10:39.134Z,14.05
2018-09-08T02:13:08.598Z,14.00
2018-09-08T02:15:38.054Z,13.61
2018-09-08T02:18:07.394Z,13.58
2018-09-08T02:20:37.048Z,13.57
2018-09-08T02:23:06.489Z,13.44
2018-09-08T02:25:36.101Z,13.66
2018-09-08T02:28:05.530Z,13.69
2018-09-08T02:30:34.855Z,13.64
2018-09-08T02:33:04.365Z,13.83
2018-09-08T02:35:33.920Z,13.77
2018-09-08T02:38:03.469Z,13.73
2018-09-08T02:40:32.935Z,13.51
2018-09-08T02:43:02.423Z,13.56
2018-09-08T02:45:31.903Z,13.53
2018-09-08T02:48:01.281Z,13.40
2018-09-08T02:50:31.654Z,13.32
2018-09-08T02:52:59.527Z,13.50
2018-09-08T02:55:27.621Z,13.59
2018-09-08T02:57:56.183Z,13.41
2018-09-08T03:00:24.079Z,13.22
2018-09-08T03:02:52.290Z,13.17
2018-09-08T03:05:20.340Z,13.21
2018-09-08T03:07:48.572Z,13.33
2018-09-08T03:10:16.909Z,13.24
2018-09-08T03:12:44.733Z,13.25
2018-09-08T03:15:12.498Z,13.35
2018-09-08T03:17:40.260Z,13.39
2018-09-08T03:20:08.116Z,13.24
2018-09-08T03:22:35.948Z,13.32
2018-09-08T03:25:03.785Z,13.31
2018-09-08T03:27:31.860Z,13.27
2018-09-08T03:29:59.700Z,13.35
2018-09-08T03:32:27.451Z,13.30
2018-09-08T03:34:55.263Z,13.33
2018-09-08T03:37:23.149Z,13.39
2018-09-08T03:39:50.948Z,13.32
2018-09-08T03:42:18.747Z,13.33
2018-09-08T03:44:46.511Z,13.39
2018-09-08T03:47:14.275Z,13.22
2018-09-08T03:49:42.600Z,13.25
2018-09-08T03:52:10.419Z,13.13
2018-09-08T03:54:38.178Z,13.07
2018-09-08T03:57:05.959Z,13.11
2018-09-08T03:59:33.765Z,13.14
2018-09-08T04:02:02.051Z,13.21
2018-09-08T04:04:31.435Z,13.22
2018-09-08T04:07:00.763Z,13.28
2018-09-08T04:09:30.126Z,13.12
2018-09-08T04:11:59.946Z,13.18
2018-09-08T04:14:29.282Z,13.39
2018-09-08T04:16:58.644Z,13.23
2018-09-08T04:19:28.012Z,12.98
2018-09-08T04:21:57.611Z,13.01
2018-09-08T04:24:26.921Z,13.06
2018-09-08T04:26:56.362Z,13.14
2018-09-08T04:29:25.735Z,12.93
2018-09-08T04:31:55.115Z,13.07
2018-09-08T04:34:31.326Z,12.90
2018-09-08T04:37:00.705Z,12.96
2018-09-08T04:39:30.006Z,13.02
2018-09-08T04:41:59.330Z,12.88
2018-09-08T04:44:28.683Z,12.90
2018-09-08T04:46:57.973Z,12.95
2018-09-08T04:49:27.309Z,13.14
2018-09-08T04:51:56.718Z,13.18
2018-09-08T04:54:26.115Z,12.99
2018-09-08T04:56:55.695Z,13.04
2018-09-08T04:59:24.960Z,13.29
2018-09-08T05:01:54.344Z,13.00
2018-09-08T05:04:23.857Z,12.98
2018-09-08T05:06:53.560Z,13.13
2018-09-08T05:09:22.810Z,13.09
2018-09-08T05:11:52.145Z,13.28
2018-09-08T05:14:21.442Z,13.27
2018-09-08T05:16:50.774Z,13.27
2018-09-08T05:19:20.632Z,13.37
2018-09-08T05:21:49.988Z,13.32
2018-09-08T05:24:19.391Z,13.29
2018-09-08T05:26:48.809Z,13.55
2018-09-08T05:29:18.139Z,13.55
2018-09-08T05:31:47.780Z,13.68
2018-09-08T05:34:17.149Z,13.67
2018-09-08T05:36:46.561Z,13.85
2018-09-08T05:39:16.807Z,13.75
2018-09-08T05:41:46.350Z,13.77
2018-09-08T05:44:15.661Z,14.20
2018-09-08T05:46:45.102Z,14.30
2018-09-08T05:49:14.505Z,14.19
2018-09-08T05:51:44.314Z,14.28
2018-09-08T05:54:14.355Z,14.40
2018-09-08T05:56:43.732Z,14.25
2018-09-08T05:59:13.234Z,14.40
2018-09-08T06:01:42.620Z,14.38
2018-09-08T06:04:12.293Z,14.42
2018-09-08T06:06:42.346Z,14.55
2018-09-08T06:09:11.807Z,14.69
2018-09-08T06:11:42.164Z,14.67
2018-09-08T06:14:13.375Z,14.79
2018-09-08T06:16:42.736Z,14.68
2018-09-08T06:19:12.172Z,14.77
2018-09-08T06:21:41.559Z,15.09
2018-09-08T06:24:11.565Z,15.40
2018-09-08T06:26:41.870Z,15.48
2018-09-08T06:29:11.960Z,15.60
2018-09-08T06:31:43.314Z,15.40
2018-09-08T06:34:12.879Z,15.32
2018-09-08T06:36:42.824Z,15.50
2018-09-08T06:39:14.296Z,15.95
2018-09-08T06:41:44.282Z,15.76
2018-09-08T06:44:13.724Z,15.77
2018-09-08T06:46:43.164Z,16.02
2018-09-08T06:49:12.565Z,16.29
2018-09-08T06:51:41.990Z,16.46
2018-09-08T06:54:11.533Z,16.58
2018-09-08T06:56:40.977Z,16.87
2018-09-08T06:59:10.387Z,16.82
2018-09-08T07:01:40.358Z,17.41
2018-09-08T07:04:09.927Z,17.13
2018-09-08T07:06:39.425Z,17.89
2018-09-08T07:11:46.627Z,19.00
2018-09-08T07:14:16.087Z,18.81
2018-09-08T07:16:45.501Z,19.44
2018-09-08T07:19:14.872Z,19.73
2018-09-08T07:21:44.756Z,19.48
2018-09-08T07:24:14.266Z,19.23
2018-09-08T07:26:43.733Z,19.91
2018-09-08T07:29:13.290Z,20.26
2018-09-08T07:31:42.836Z,20.47
2018-09-08T07:34:12.422Z,20.73
2018-09-08T07:36:42.185Z,20.72
2018-09-08T07:39:12.203Z,20.74
2018-09-08T07:41:41.782Z,21.75
2018-09-08T07:44:11.592Z,22.68
2018-09-08T07:46:41.204Z,22.98
2018-09-08T07:49:10.714Z,22.84
2018-09-08T07:51:40.143Z,22.12
2018-09-08T07:54:10.036Z,22.71
2018-09-08T07:56:39.460Z,23.03
2018-09-08T07:59:08.950Z,24.44
2018-09-08T08:01:38.333Z,24.80
2018-09-08T08:04:07.726Z,24.29
2018-09-08T08:06:37.455Z,25.77
2018-09-08T08:09:09.009Z,27.13
2018-09-08T08:11:38.658Z,27.92
2018-09-08T08:14:08.270Z,26.90
2018-09-08T08:16:37.779Z,26.53
2018-09-08T08:19:07.285Z,26.02
2018-09-08T08:21:36.779Z,26.60
2018-09-08T08:24:06.249Z,27.75
2018-09-08T08:26:36.446Z,25.83
2018-09-08T08:29:06.035Z,26.09
2018-09-08T08:31:35.771Z,26.82
2018-09-08T08:34:05.293Z,27.79
2018-09-08T08:36:34.881Z,28.45
2018-09-08T08:39:04.451Z,29.15
2018-09-08T08:41:34.059Z,29.20
2018-09-08T08:44:03.461Z,29.14
2018-09-08T08:46:32.887Z,27.95
2018-09-08T08:49:02.590Z,30.13
2018-09-08T08:53:51.341Z,28.58
2018-09-08T08:56:20.870Z,30.59
2018-09-08T08:58:50.598Z,30.08
2018-09-08T09:01:20.983Z,30.29
2018-09-08T09:03:50.434Z,28.99
2018-09-08T09:06:19.832Z,27.94
2018-09-08T09:08:50.128Z,28.31
2018-09-08T09:11:19.717Z,25.50
2018-09-08T09:13:49.076Z,24.90
2018-09-08T09:16:18.666Z,24.36
2018-09-08T09:19:05.053Z,23.48
2018-09-08T09:21:51.262Z,23.75
2018-09-08T09:24:38.767Z,24.26
2018-09-08T09:27:07.543Z,24.53
2018-09-08T09:29:36.919Z,23.80
2018-09-08T09:32:07.018Z,25.30
2018-09-08T09:34:36.432Z,29.25
2018-09-08T09:37:05.937Z,28.66
2018-09-08T09:39:35.472Z,27.65
2018-09-08T09:42:05.100Z,26.92
2018-09-08T09:44:34.697Z,29.39
2018-09-08T09:47:04.406Z,31.06
2018-09-08T09:49:33.844Z,29.52
2018-09-08T09:52:03.430Z,30.42
2018-09-08T09:54:33.016Z,31.46
2018-09-08T09:57:02.351Z,31.71
2018-09-08T09:59:31.783Z,29.60
2018-09-08T10:02:03.902Z,26.83
2018-09-08T10:04:33.283Z,28.92
2018-09-08T10:07:02.732Z,29.57
2018-09-08T10:09:34.919Z,30.34
2018-09-08T10:12:04.379Z,30.18
2018-09-08T10:14:33.810Z,32.08
2018-09-08T10:17:03.205Z,33.05
2018-09-08T10:19:32.753Z,31.86
2018-09-08T10:22:02.181Z,29.98
2018-09-08T10:24:31.534Z,32.65
2018-09-08T10:27:02.412Z,33.24
2018-09-08T10:29:31.922Z,29.63
2018-09-08T10:32:01.623Z,29.06
2018-09-08T10:34:30.957Z,27.85
2018-09-08T10:37:00.528Z,27.09
2018-09-08T10:39:30.046Z,28.49
2018-09-08T10:41:59.365Z,30.44
2018-09-08T10:44:28.735Z,31.54
2018-09-08T10:46:58.380Z,33.18
2018-09-08T10:49:28.092Z,34.66
2018-09-08T10:52:10.965Z,30.65
2018-09-08T10:54:40.585Z,28.61
2018-09-08T10:57:10.000Z,28.93
2018-09-08T10:59:39.474Z,29.58
2018-09-08T11:02:10.050Z,31.80
2018-09-08T11:04:39.229Z,34.20
2018-09-08T11:07:08.886Z,36.12
2018-09-08T11:09:38.630Z,36.01
2018-09-08T11:12:08.156Z,32.83
2018-09-08T11:14:37.774Z,30.28
2018-09-08T11:17:07.210Z,28.80
2018-09-08T11:19:36.861Z,28.21
2018-09-08T11:22:06.326Z,27.08
2018-09-08T11:24:35.850Z,27.22
2018-09-08T11:27:05.730Z,26.90
2018-09-08T11:29:35.181Z,26.31
2018-09-08T11:32:05.279Z,26.49
2018-09-08T11:34:34.976Z,26.99
2018-09-08T11:37:04.696Z,27.13
2018-09-08T11:39:35.200Z,27.05
2018-09-08T11:42:04.757Z,28.06
2018-09-08T11:44:34.190Z,29.33
2018-09-08T11:47:03.663Z,28.86
2018-09-08T11:49:33.143Z,27.82
2018-09-08T11:52:02.612Z,26.95
2018-09-08T11:54:32.133Z,27.41
2018-09-08T11:57:01.612Z,27.99
2018-09-08T11:59:31.471Z,27.29
2018-09-08T12:02:00.999Z,29.24
2018-09-08T12:04:30.340Z,30.24
2018-09-08T12:06:59.842Z,29.44
2018-09-08T12:09:29.244Z,28.31
2018-09-08T12:11:59.094Z,26.80
2018-09-08T12:14:28.491Z,27.06
2018-09-08T12:16:57.927Z,25.55
2018-09-08T12:19:28.048Z,27.06
2018-09-08T12:21:57.618Z,29.29
2018-09-08T12:24:26.979Z,29.85
2018-09-08T12:26:56.402Z,27.36
2018-09-08T12:29:25.849Z,26.01
2018-09-08T12:31:55.192Z,24.51
2018-09-08T12:34:24.805Z,24.34
2018-09-08T12:36:54.129Z,24.59
2018-09-08T12:39:23.610Z,25.45
2018-09-08T12:41:53.136Z,26.75
2018-09-08T12:44:23.008Z,27.75
2018-09-08T12:46:52.506Z,29.51
2018-09-08T12:49:22.029Z,30.63
2018-09-08T12:51:51.675Z,33.12
2018-09-08T12:54:21.125Z,32.02
2018-09-08T12:56:51.444Z,28.93
2018-09-08T12:59:21.021Z,26.98
2018-09-08T13:01:50.490Z,27.02
2018-09-08T13:04:19.972Z,27.83
2018-09-08T13:06:49.677Z,26.94
2018-09-08T13:09:19.099Z,26.13
2018-09-08T13:11:48.632Z,25.64
2018-09-08T13:14:18.068Z,26.17
2018-09-08T13:16:47.529Z,26.32
2018-09-08T13:19:16.898Z,25.99
2018-09-08T13:21:46.399Z,27.58
2018-09-08T13:24:16.028Z,28.87
2018-09-08T13:26:45.727Z,27.28
2018-09-08T13:29:15.198Z,26.54
2018-09-08T13:31:44.619Z,27.76
2018-09-08T13:34:13.955Z,28.52
2018-09-08T13:36:43.352Z,30.45
2018-09-08T13:39:12.657Z,28.68
2018-09-08T13:41:42.061Z,28.60
2018-09-08T13:44:11.450Z,28.11
2018-09-08T13:46:40.767Z,28.84
2018-09-08T13:49:10.186Z,30.05
2018-09-08T13:51:40.188Z,29.59
2018-09-08T13:54:09.544Z,29.39
2018-09-08T13:56:38.866Z,28.12
2018-09-08T13:59:09.249Z,27.05
2018-09-08T14:01:38.884Z,26.53
2018-09-08T14:04:08.426Z,26.96
2018-09-08T14:06:38.221Z,27.39
2018-09-08T14:09:08.129Z,27.11
2018-09-08T14:11:37.517Z,26.80
2018-09-08T14:14:07.136Z,27.11
2018-09-08T14:16:37.113Z,27.26
2018-09-08T14:19:06.848Z,26.92
2018-09-08T14:21:36.255Z,26.60
2018-09-08T14:24:05.654Z,26.30
2018-09-08T14:26:34.983Z,25.58
2018-09-08T14:29:04.379Z,25.39
2018-09-08T14:31:34.049Z,25.41
2018-09-08T14:34:03.562Z,25.90
2018-09-08T14:36:33.390Z,25.89
2018-09-08T14:39:02.744Z,26.50
2018-09-08T14:41:32.181Z,25.41
2018-09-08T14:44:01.572Z,24.95
2018-09-08T14:46:31.040Z,25.09
2018-09-08T14:49:00.347Z,25.87
2018-09-08T14:51:29.812Z,25.93
2018-09-08T14:53:59.235Z,25.73
2018-09-08T14:56:28.663Z,25.67
2018-09-08T14:58:58.354Z,25.70
2018-09-08T15:01:27.739Z,24.88
2018-09-08T15:03:57.194Z,25.20
2018-09-08T15:06:26.556Z,25.37
2018-09-08T15:08:55.960Z,25.44
2018-09-08T15:11:25.350Z,25.49
2018-09-08T15:13:55.018Z,25.57
2018-09-08T15:16:24.365Z,25.41
2018-09-08T15:18:53.717Z,25.43
2018-09-08T15:21:23.540Z,25.63
2018-09-08T15:23:54.400Z,24.83
2018-09-08T15:26:23.755Z,24.37
2018-09-08T15:28:53.268Z,24.56
2018-09-08T15:31:22.586Z,24.84
2018-09-08T15:33:52.046Z,24.39
2018-09-08T15:36:21.412Z,23.90
2018-09-08T15:38:50.760Z,23.76
2018-09-08T15:41:20.601Z,24.33
2018-09-08T15:43:50.253Z,24.37
2018-09-08T15:46:19.671Z,24.39
2018-09-08T15:48:49.045Z,23.91
2018-09-08T15:51:18.436Z,23.86
2018-09-08T15:53:47.824Z,23.92
2018-09-08T15:56:17.375Z,23.76
2018-09-08T15:58:46.886Z,23.71
2018-09-08T16:01:16.316Z,23.91
2018-09-08T16:03:45.626Z,23.76
2018-09-08T16:06:15.337Z,23.67
2018-09-08T16:08:44.759Z,23.81
2018-09-08T16:11:14.990Z,23.66
2018-09-08T16:13:44.325Z,23.07
2018-09-08T16:16:13.708Z,22.63
2018-09-08T16:18:43.232Z,22.58
2018-09-08T16:21:12.639Z,22.74
2018-09-08T16:23:41.997Z,22.29
2018-09-08T16:26:11.373Z,22.08
2018-09-08T16:28:41.174Z,22.14
2018-09-08T16:31:10.456Z,21.83
2018-09-08T16:33:40.105Z,22.09
2018-09-08T16:36:09.568Z,21.81
2018-09-08T16:38:38.955Z,21.47
2018-09-08T16:41:08.406Z,22.01
2018-09-08T16:43:37.958Z,22.06
2018-09-08T16:46:07.627Z,22.12
2018-09-08T16:48:37.123Z,22.39
2018-09-08T16:51:07.081Z,22.28
2018-09-08T16:53:36.455Z,22.06
2018-09-08T16:56:05.791Z,22.02
2018-09-08T16:58:35.171Z,22.33
2018-09-08T17:01:04.578Z,22.01
2018-09-08T17:03:33.970Z,21.91
2018-09-08T17:06:03.522Z,21.85
2018-09-08T17:08:33.016Z,21.99
2018-09-08T17:11:02.482Z,21.92
2018-09-08T17:13:32.275Z,21.96
2018-09-08T17:16:01.706Z,21.78
2018-09-08T17:18:31.108Z,21.71
2018-09-08T17:21:00.549Z,21.65
2018-09-08T17:23:29.953Z,21.82
2018-09-08T17:25:59.330Z,21.97
2018-09-08T17:28:28.763Z,21.75
2018-09-08T17:30:58.089Z,21.79
2018-09-08T17:33:27.493Z,22.13
2018-09-08T17:35:56.963Z,21.95
2018-09-08T17:38:26.327Z,21.91
2018-09-08T17:40:55.681Z,21.93
2018-09-08T17:43:25.081Z,21.94
2018-09-08T17:45:54.448Z,21.79
2018-09-08T17:48:23.962Z,21.82
2018-09-08T17:50:53.384Z,21.82
2018-09-08T17:53:22.836Z,21.43
2018-09-08T17:55:52.160Z,21.63
2018-09-08T17:58:22.091Z,21.66
2018-09-08T18:00:51.460Z,21.43
2018-09-08T18:03:20.787Z,21.50
2018-09-08T18:05:50.226Z,21.44
2018-09-08T18:08:23.680Z,21.39
2018-09-08T18:10:53.348Z,21.34
2018-09-08T18:13:23.359Z,21.56
2018-09-08T18:15:52.782Z,21.41
2018-09-08T18:18:22.781Z,21.56
2018-09-08T18:20:52.635Z,21.72
2018-09-08T18:23:22.024Z,21.70
2018-09-08T18:25:51.416Z,21.54
2018-09-08T18:28:20.877Z,21.51
2018-09-08T18:30:50.247Z,21.39
2018-09-08T18:33:20.111Z,21.32
2018-09-08T18:35:51.746Z,21.30
2018-09-08T18:38:21.284Z,21.24
2018-09-08T18:40:50.652Z,21.25
2018-09-08T18:43:21.161Z,21.28
2018-09-08T18:45:50.586Z,21.13
2018-09-08T18:48:19.973Z,21.20
2018-09-08T18:50:49.433Z,21.00
2018-09-08T18:53:19.008Z,21.02
2018-09-08T18:55:49.241Z,20.89
2018-09-08T18:58:18.606Z,20.88
2018-09-08T19:00:49.514Z,20.75
2018-09-08T19:03:18.963Z,20.73
2018-09-08T19:05:48.919Z,20.63
2018-09-08T19:08:18.372Z,20.63
2018-09-08T19:10:48.118Z,20.61
2018-09-08T19:13:19.270Z,20.51
2018-09-08T19:15:48.670Z,20.43
2018-09-08T19:18:18.124Z,20.51
2018-09-08T19:20:48.108Z,20.51
2018-09-08T19:23:17.494Z,20.44
2018-09-08T19:25:47.037Z,20.25
2018-09-08T19:28:16.625Z,20.13
2018-09-08T19:30:46.717Z,20.19
2018-09-08T19:33:16.536Z,20.26
2018-09-08T19:35:46.208Z,20.25
2018-09-08T19:38:15.611Z,20.18
2018-09-08T19:40:47.943Z,20.22
2018-09-08T19:43:17.335Z,20.16
2018-09-08T19:45:46.819Z,20.21
2018-09-08T19:48:18.623Z,20.24
2018-09-08T19:50:48.049Z,20.17
2018-09-08T19:53:22.679Z,20.03
2018-09-08T19:55:52.194Z,19.96
2018-09-08T19:58:26.943Z,19.95
2018-09-08T20:00:56.336Z,19.95
2018-09-08T20:03:26.404Z,19.89
2018-09-08T20:05:55.827Z,19.95
2018-09-08T20:08:25.246Z,19.89
2018-09-08T20:10:54.957Z,19.75
2018-09-08T20:13:25.617Z,19.64
2018-09-08T20:15:55.089Z,19.54
2018-09-08T20:18:24.472Z,19.48
2018-09-08T20:20:54.297Z,19.48
2018-09-08T20:23:23.877Z,19.51
2018-09-08T20:25:53.375Z,19.27
2018-09-08T20:28:22.915Z,19.38
2018-09-08T20:30:52.312Z,19.41
2018-09-08T20:33:21.650Z,19.16
2018-09-08T20:35:51.111Z,19.27
2018-09-08T20:38:20.513Z,19.27
2018-09-08T20:40:50.016Z,19.21
2018-09-08T20:43:20.004Z,19.19
2018-09-08T20:45:49.467Z,19.21
2018-09-08T20:48:18.888Z,19.32
2018-09-08T20:50:48.393Z,18.97
2018-09-08T20:53:17.885Z,18.91
2018-09-08T20:55:47.164Z,18.81
2018-09-08T20:58:16.526Z,18.85
2018-09-08T21:00:45.900Z,18.82
2018-09-08T21:03:15.379Z,19.00
2018-09-08T21:05:45.047Z,18.99
2018-09-08T21:08:14.472Z,18.87
2018-09-08T21:10:43.958Z,18.92
2018-09-08T21:13:13.527Z,18.78
2018-09-08T21:15:43.435Z,18.91
2018-09-08T21:18:12.826Z,18.82
2018-09-08T21:20:42.260Z,18.80
2018-09-08T21:23:11.640Z,18.81
2018-09-08T21:25:41.038Z,18.66
2018-09-08T21:28:10.763Z,18.79
2018-09-08T21:30:40.541Z,18.70
2018-09-08T21:33:10.638Z,18.74
2018-09-08T21:35:40.410Z,18.57
2018-09-08T21:38:10.214Z,18.59
2018-09-08T21:40:39.600Z,18.58
2018-09-08T21:43:09.170Z,18.60
2018-09-08T21:45:38.538Z,18.70
2018-09-08T21:48:07.960Z,18.60
2018-09-08T21:50:37.933Z,18.60
2018-09-08T21:53:07.353Z,18.58
2018-09-08T21:55:36.761Z,18.53
2018-09-08T21:58:06.951Z,18.66
2018-09-08T22:00:36.846Z,18.52
2018-09-08T22:03:06.284Z,18.44
2018-09-08T22:05:35.804Z,18.33
2018-09-08T22:08:05.230Z,18.48
2018-09-08T22:10:34.690Z,18.52
2018-09-08T22:13:04.663Z,18.52
2018-09-08T22:15:34.066Z,18.33
2018-09-08T22:18:03.628Z,18.45
2018-09-08T22:20:33.116Z,18.52
2018-09-08T22:23:02.476Z,18.33
2018-09-08T22:25:31.945Z,18.39
2018-09-08T22:28:01.363Z,18.26
2018-09-08T22:30:30.803Z,18.21
2018-09-08T22:33:00.257Z,18.15
2018-09-08T22:35:29.735Z,18.24
2018-09-08T22:37:59.152Z,18.19
2018-09-08T22:40:28.641Z,18.04
2018-09-08T22:42:58.008Z,17.96
2018-09-08T22:45:27.416Z,17.96
2018-09-08T22:47:57.289Z,17.88
2018-09-08T22:50:26.710Z,17.87
2018-09-08T22:52:56.238Z,17.80
2018-09-08T22:55:25.636Z,17.58
2018-09-08T22:57:55.381Z,17.50
2018-09-08T23:00:24.886Z,17.72
2018-09-08T23:02:54.441Z,17.81
2018-09-08T23:05:23.899Z,17.72
2018-09-08T23:07:53.224Z,17.98
2018-09-08T23:10:22.619Z,17.98
2018-09-08T23:12:52.020Z,17.95
2018-09-08T23:15:21.857Z,17.85
2018-09-08T23:17:51.683Z,17.89
2018-09-08T23:20:21.361Z,18.00
2018-09-08T23:22:51.053Z,17.95
2018-09-08T23:25:20.514Z,18.05
2018-09-08T23:27:49.812Z,17.96
2018-09-08T23:30:19.274Z,18.13
2018-09-08T23:32:48.636Z,18.22
2018-09-08T23:35:18.067Z,18.12
2018-09-08T23:37:47.661Z,18.07
2018-09-08T23:40:17.238Z,18.29
2018-09-08T23:42:47.163Z,18.24
2018-09-08T23:45:16.682Z,18.22
2018-09-08T23:47:46.199Z,18.14
2018-09-08T23:50:15.635Z,18.06
2018-09-08T23:52:44.997Z,18.01
2018-09-08T23:55:14.467Z,18.01
2018-09-08T23:57:43.863Z,18.06
